MTS Vanquish — 2HFK5 — position and weather

sailwx.info

Track history (hours):
 
Tides and Currents Weather Stations Pressure Air Temp Water Temp Dewpoint Dewpoint Depression Visibility Wind Speed Wind Dir Waves Ship Positions

MTS Vanquish

Last reported at 2018-Feb-23 12:01 UTC. Time now 2018-Feb-23 12:29 UTC.
Position N 55°59' W 002°09'.

Length 29 m; draft 4.7 m.

Type: Towing. MMSI: 235103213.

Date/timePositionNaut miles runAvg speedWind from/ knotsBaromVisibWave heightAir tempDewpointWater temp
2018-Feb-23 12:01N 55°59' W 002°09'3 6.3
2018-Feb-23 11:30N 55°57' W 002°04'3 6.0
2018-Feb-23 11:00N 55°55' W 002°01'3 6.0
2018-Feb-23 10:31N 55°53' W 001°57'3 5.8
2018-Feb-23 10:00N 55°51' W 001°53'3 6.0
2018-Feb-23 09:30N 55°49' W 001°49'3 5.9
2018-Feb-23 09:00N 55°47' W 001°46'4 5.9
2018-Feb-23 08:24N 55°44' W 001°41'10 5.8
2018-Feb-23 06:45N 55°36' W 001°33'1 5.9
2018-Feb-23 06:30N 55°35' W 001°32'3 5.9
2018-Feb-23 06:00N 55°32' W 001°32'3 6.1
2018-Feb-23 05:30N 55°29' W 001°31'3162.6
2018-Feb-23 05:01N 54°58' W 001°19'1017.3
2018-Feb-23 04:26N 55°08' W 001°25'1 3.1
2018-Feb-23 03:59N 55°09' W 001°26'0 0.2
2018-Feb-23 03:31N 55°09' W 001°26'2 4.0
2018-Feb-23 03:01N 55°07' W 001°25'918.2
2018-Feb-23 02:30N 54°59' W 001°19'1 1.2
2018-Feb-23 02:01N 54°58' W 001°19'2 3.1
2018-Feb-23 01:30N 54°57' W 001°18'611.4
2018-Feb-23 01:00N 54°51' W 001°15'2 4.3
2018-Feb-23 00:31N 54°49' W 001°13'4 7.9
2018-Feb-23 00:00N 54°46' W 001°08'68 8.1
2018-Feb-22 15:38N 53°56' E 000°10'66 8.9
2018-Feb-22 08:11N 53°01' E 001°10'5 9.3
2018-Feb-22 07:41N 52°59' E 001°18'2 9.7
2018-Feb-22 07:30N 52°59' E 001°21'610.3
2018-Feb-22 06:56N 52°57' E 001°29'511.1
2018-Feb-22 06:30N 52°54' E 001°36'611.3
2018-Feb-22 05:59N 52°49' E 001°43'711.0
2018-Feb-22 05:18N 52°44' E 001°52'80 9.1
2018-Feb-21 20:36N 52°05' E 003°45'1 9.0
2018-Feb-21 20:29N 52°05' E 003°47'5 9.1
2018-Feb-21 19:59N 52°04' E 003°54'4 8.4
2018-Feb-21 19:30N 52°02' E 003°60'4 8.9
2018-Feb-21 19:00N 51°59' E 004°05'4 8.0
2018-Feb-21 18:30N 51°57' E 004°11'4 7.1
2018-Feb-21 18:00N 51°55' E 004°15'3 6.3
2018-Feb-21 17:30N 51°54' E 004°20'3 6.8
2018-Feb-21 17:00N 51°54' E 004°26'0 0.2
2018-Feb-21 16:29N 51°54' E 004°26'0 0.0
2018-Feb-21 15:59N 51°54' E 004°26'0 0.0
2018-Feb-21 15:29N 51°54' E 004°26'0 0.0
2018-Feb-21 14:59N 51°54' E 004°26'0 0.0
2018-Feb-21 14:29N 51°54' E 004°26'0 0.0
2018-Feb-21 13:59N 51°54' E 004°26'0 0.0
2018-Feb-21 13:29N 51°54' E 004°26'0 0.0
2018-Feb-21 12:59N 51°54' E 004°26'0 0.0
2018-Feb-21 12:29N 51°54' E 004°26'0 0.0
2018-Feb-21 11:59N 51°54' E 004°26'0 0.0
2018-Feb-21 11:29N 51°54' E 004°26'0 0.0
2018-Feb-21 10:59N 51°54' E 004°26'0 0.0
2018-Feb-21 10:29N 51°54' E 004°26'0 0.0
2018-Feb-21 09:59N 51°54' E 004°26'0 0.0
2018-Feb-21 09:29N 51°54' E 004°26'0 0.0
2018-Feb-21 08:59N 51°54' E 004°26'0 0.0
2018-Feb-21 08:29N 51°54' E 004°26'0 0.0
2018-Feb-21 07:59N 51°54' E 004°26'0 0.0
2018-Feb-21 07:29N 51°54' E 004°26'0 0.0
2018-Feb-21 06:59N 51°54' E 004°26'0 0.0
2018-Feb-21 06:29N 51°54' E 004°26'0 0.0
2018-Feb-21 05:59N 51°54' E 004°26'0 0.0
2018-Feb-21 05:29N 51°54' E 004°26'0 0.0
2018-Feb-21 04:59N 51°54' E 004°26'0 0.0
2018-Feb-21 04:29N 51°54' E 004°26'0 0.0
2018-Feb-21 03:59N 51°54' E 004°26'0 0.0
2018-Feb-21 03:29N 51°54' E 004°26'0 0.0
2018-Feb-21 02:59N 51°54' E 004°26'0 0.0
2018-Feb-21 02:29N 51°54' E 004°26'0 0.0
2018-Feb-21 01:59N 51°54' E 004°26'0 0.0
2018-Feb-21 01:29N 51°54' E 004°26'0 0.0
2018-Feb-21 00:59N 51°54' E 004°26'0 0.0
2018-Feb-21 00:29N 51°54' E 004°26'0 0.0
2018-Feb-20 23:59N 51°54' E 004°26'0 0.0
2018-Feb-20 23:29N 51°54' E 004°26'0 0.0
2018-Feb-20 22:59N 51°54' E 004°26'0 0.0
2018-Feb-20 22:29N 51°54' E 004°26'0 0.0
2018-Feb-20 21:59N 51°54' E 004°26'0 0.0
2018-Feb-20 21:29N 51°54' E 004°26'0 0.0
2018-Feb-20 20:59N 51°54' E 004°26'0 0.0
2018-Feb-20 20:29N 51°54' E 004°26'0 0.0
2018-Feb-20 19:59N 51°54' E 004°26'0 0.0
2018-Feb-20 19:29N 51°54' E 004°26'0 0.0
2018-Feb-20 18:59N 51°54' E 004°26'0 0.0
2018-Feb-20 18:29N 51°54' E 004°26'0 0.0
2018-Feb-20 17:59N 51°54' E 004°26'0 0.0
2018-Feb-20 17:29N 51°54' E 004°26'0 0.0
2018-Feb-20 16:59N 51°54' E 004°26'0 0.0
2018-Feb-20 16:29N 51°54' E 004°26'0 0.0
2018-Feb-20 15:59N 51°54' E 004°26'0 0.0
2018-Feb-20 15:29N 51°54' E 004°26'0 0.0
2018-Feb-20 14:59N 51°54' E 004°26'0 0.0
2018-Feb-20 14:29N 51°54' E 004°26'0 0.0
2018-Feb-20 13:59N 51°54' E 004°26'0 0.0
2018-Feb-20 13:29N 51°54' E 004°26'0 0.0
2018-Feb-20 12:59N 51°54' E 004°26'0 0.0
2018-Feb-20 12:29N 51°54' E 004°26'0 0.0
2018-Feb-20 11:59N 51°54' E 004°26'0 0.0
2018-Feb-20 11:29N 51°54' E 004°26'0 0.0
2018-Feb-20 10:59N 51°54' E 004°26'0 0.0
2018-Feb-20 10:29N 51°54' E 004°26'0 0.0
2018-Feb-20 09:59N 51°54' E 004°26'0 0.0
2018-Feb-20 09:29N 51°54' E 004°26'0 0.0
2018-Feb-20 08:59N 51°54' E 004°26'0 0.0
2018-Feb-20 08:29N 51°54' E 004°26'0 0.0
2018-Feb-20 07:56N 51°54' E 004°26'0 0.0
2018-Feb-20 07:29N 51°54' E 004°26'0 0.0
2018-Feb-20 06:56N 51°54' E 004°26'0 0.0
2018-Feb-20 06:29N 51°54' E 004°26'0 0.0
2018-Feb-20 05:59N 51°54' E 004°26'0 0.0
2018-Feb-20 05:29N 51°54' E 004°26'0 0.0
2018-Feb-20 04:59N 51°54' E 004°26'0 0.0
2018-Feb-20 04:26N 51°54' E 004°26'0 0.0
2018-Feb-20 03:59N 51°54' E 004°26'0 0.0
2018-Feb-20 03:26N 51°54' E 004°26'0 0.0
2018-Feb-20 02:59N 51°54' E 004°26'0 0.0
2018-Feb-20 02:29N 51°54' E 004°26'0 0.0
2018-Feb-20 01:59N 51°54' E 004°26'0 0.0
2018-Feb-20 01:29N 51°54' E 004°26'0 0.0
2018-Feb-20 00:59N 51°54' E 004°26'0 0.0
2018-Feb-20 00:29N 51°54' E 004°26'0 0.0
2018-Feb-19 23:59N 51°54' E 004°26'0 0.0
2018-Feb-19 23:29N 51°54' E 004°26'0 0.0
2018-Feb-19 22:59N 51°54' E 004°26'0 0.0
2018-Feb-19 22:29N 51°54' E 004°26'0 0.0
2018-Feb-19 21:59N 51°54' E 004°26'0 0.0
2018-Feb-19 21:29N 51°54' E 004°26'0 0.0
2018-Feb-19 20:59N 51°54' E 004°26'0 0.0
2018-Feb-19 20:29N 51°54' E 004°26'0 0.0
2018-Feb-19 19:59N 51°54' E 004°26'0 0.0
2018-Feb-19 19:29N 51°54' E 004°26'0 0.0
2018-Feb-19 18:59N 51°54' E 004°26'0 0.0
2018-Feb-19 18:29N 51°54' E 004°26'0 0.0
2018-Feb-19 17:59N 51°54' E 004°26'0 0.0
2018-Feb-19 17:29N 51°54' E 004°26'0 0.0
2018-Feb-19 16:59N 51°54' E 004°26'0 0.0
2018-Feb-19 16:29N 51°54' E 004°26'0 0.0
2018-Feb-19 15:59N 51°54' E 004°26'0 0.0
2018-Feb-19 15:29N 51°54' E 004°26'0 0.0
2018-Feb-19 14:59N 51°54' E 004°26'0 0.0
2018-Feb-19 14:29N 51°54' E 004°26'0 0.0
2018-Feb-19 13:59N 51°54' E 004°26'0 0.0
2018-Feb-19 13:26N 51°54' E 004°26'0 0.0
2018-Feb-19 12:59N 51°54' E 004°26'0 0.0
2018-Feb-19 12:29N 51°54' E 004°26'0 0.0
2018-Feb-19 11:59N 51°54' E 004°26'0 0.0
2018-Feb-19 11:29N 51°54' E 004°26'0 0.0
2018-Feb-19 10:58N 51°54' E 004°26'0 0.0
2018-Feb-19 10:29N 51°54' E 004°26'0 0.0
2018-Feb-19 09:59N 51°54' E 004°26'0 0.0
2018-Feb-19 09:29N 51°54' E 004°26'0 0.0
2018-Feb-19 08:58N 51°54' E 004°26'0 0.0
2018-Feb-19 08:29N 51°54' E 004°26'0 0.0
2018-Feb-19 07:58N 51°54' E 004°26'0 0.0
2018-Feb-19 07:29N 51°54' E 004°26'0 0.0
2018-Feb-19 06:59N 51°54' E 004°26'0 0.0
2018-Feb-19 06:29N 51°54' E 004°26'0 0.0
2018-Feb-19 05:59N 51°54' E 004°26'0 0.0
2018-Feb-19 05:28N 51°54' E 004°26'0 0.0
2018-Feb-19 04:58N 51°54' E 004°26'0 0.0
2018-Feb-19 04:28N 51°54' E 004°26'0 0.0
2018-Feb-19 03:59N 51°54' E 004°26'0 0.0
2018-Feb-19 03:28N 51°54' E 004°26'0 0.0
2018-Feb-19 02:59N 51°54' E 004°26'0 0.0
2018-Feb-19 02:25N 51°54' E 004°26'0 0.0
2018-Feb-19 01:58N 51°54' E 004°26'0 0.0
2018-Feb-19 01:29N 51°54' E 004°26'0 0.0
2018-Feb-19 00:59N 51°54' E 004°26'0 0.0
2018-Feb-19 00:28N 51°54' E 004°26'0 0.0
2018-Feb-18 23:58N 51°54' E 004°26'0 0.0
2018-Feb-18 23:25N 51°54' E 004°26'0 0.0
2018-Feb-18 22:58N 51°54' E 004°26'0 0.0
2018-Feb-18 22:29N 51°54' E 004°26'0 0.0
2018-Feb-18 21:59N 51°54' E 004°26'0 0.0
2018-Feb-18 21:29N 51°54' E 004°26'0 0.0
2018-Feb-18 20:58N 51°54' E 004°26'0 0.0
2018-Feb-18 20:28N 51°54' E 004°26'0 0.0
2018-Feb-18 19:58N 51°54' E 004°26'0 0.0
2018-Feb-18 19:28N 51°54' E 004°26'0 0.0
2018-Feb-18 18:58N 51°54' E 004°26'0 0.0
2018-Feb-18 18:29N 51°54' E 004°26'0 0.0
2018-Feb-18 17:58N 51°54' E 004°26'0 0.0
2018-Feb-18 17:28N 51°54' E 004°26'0 0.0
2018-Feb-18 16:58N 51°54' E 004°26'0 0.0
2018-Feb-18 16:28N 51°54' E 004°26'0 0.0
2018-Feb-18 15:58N 51°54' E 004°26'0 0.0
2018-Feb-18 15:25N 51°54' E 004°26'0 0.0
2018-Feb-18 14:58N 51°54' E 004°26'0 0.0
2018-Feb-18 14:28N 51°54' E 004°26'0 0.0
2018-Feb-18 13:58N 51°54' E 004°26'0 0.0
2018-Feb-18 13:28N 51°54' E 004°26'0 0.0
2018-Feb-18 12:58N 51°54' E 004°26'0 0.0
2018-Feb-18 12:28N 51°54' E 004°26'0 0.0
2018-Feb-18 11:58N 51°54' E 004°26'0 0.0
2018-Feb-18 11:28N 51°54' E 004°26'0 0.0
2018-Feb-18 10:58N 51°54' E 004°26'0 0.0
2018-Feb-18 10:28N 51°54' E 004°26'0 0.0
2018-Feb-18 09:55N 51°54' E 004°26'0 0.0
2018-Feb-18 09:28N 51°54' E 004°26'0 0.0
2018-Feb-18 08:58N 51°54' E 004°26'0 0.0
2018-Feb-18 08:29N 51°54' E 004°26'0 0.0
2018-Feb-18 07:58N 51°54' E 004°26'0 0.0
2018-Feb-18 07:28N 51°54' E 004°26'0 0.0
2018-Feb-18 06:58N 51°54' E 004°26'0 0.0
2018-Feb-18 06:28N 51°54' E 004°26'0 0.0
2018-Feb-18 05:58N 51°54' E 004°26'0 0.0
2018-Feb-18 05:28N 51°54' E 004°26'0 0.0
2018-Feb-18 04:58N 51°54' E 004°26'0 0.0
2018-Feb-18 04:28N 51°54' E 004°26'0 0.0
2018-Feb-18 03:58N 51°54' E 004°26'0 0.0
2018-Feb-18 03:28N 51°54' E 004°26'0 0.0
2018-Feb-18 02:58N 51°54' E 004°26'0 0.0
2018-Feb-18 02:28N 51°54' E 004°26'0 0.0
2018-Feb-18 01:58N 51°54' E 004°26'0 0.0
2018-Feb-18 01:28N 51°54' E 004°26'0 0.0
2018-Feb-18 00:58N 51°54' E 004°26'0 0.0
2018-Feb-18 00:28N 51°54' E 004°26'0 0.0
2018-Feb-17 23:58N 51°54' E 004°26'0 0.0
2018-Feb-17 23:28N 51°54' E 004°26'0 0.0
2018-Feb-17 22:58N 51°54' E 004°26'0 0.0
2018-Feb-17 22:28N 51°54' E 004°26'0 0.0
2018-Feb-17 21:58N 51°54' E 004°26'0 0.0
2018-Feb-17 21:25N 51°54' E 004°26'0 0.0
2018-Feb-17 20:58N 51°54' E 004°26'0 0.0
2018-Feb-17 20:28N 51°54' E 004°26'0 0.0
2018-Feb-17 19:58N 51°54' E 004°26'0 0.0
2018-Feb-17 19:28N 51°54' E 004°26'0 0.0
2018-Feb-17 18:58N 51°54' E 004°26'0 0.0
2018-Feb-17 18:28N 51°54' E 004°26'0 0.0
2018-Feb-17 17:58N 51°54' E 004°26'0 0.0
2018-Feb-17 17:28N 51°54' E 004°26'0 0.0
2018-Feb-17 16:58N 51°54' E 004°26'0 0.0
2018-Feb-17 16:28N 51°54' E 004°26'0 0.0
2018-Feb-17 15:58N 51°54' E 004°26'0 0.0
2018-Feb-17 15:28N 51°54' E 004°26'0 0.0
2018-Feb-17 14:58N 51°54' E 004°26'0 0.0
2018-Feb-17 14:28N 51°54' E 004°26'0 0.0
2018-Feb-17 13:58N 51°54' E 004°26'0 0.0
2018-Feb-17 13:28N 51°54' E 004°26'0 0.0
2018-Feb-17 12:58N 51°54' E 004°26'0 0.0
2018-Feb-17 12:28N 51°54' E 004°26'0 0.0
2018-Feb-17 11:58N 51°54' E 004°26'0 0.0
2018-Feb-17 11:28N 51°54' E 004°26'0 0.0
2018-Feb-17 10:58N 51°54' E 004°26'0 0.0
2018-Feb-17 10:28N 51°54' E 004°26'0 0.0
2018-Feb-17 09:58N 51°54' E 004°26'0 0.0
2018-Feb-17 09:25N 51°54' E 004°26'0 0.0
2018-Feb-17 08:58N 51°54' E 004°26'0 0.0
2018-Feb-17 08:28N 51°54' E 004°26'0 0.0
2018-Feb-17 07:58N 51°54' E 004°26'0 0.0
2018-Feb-17 07:28N 51°54' E 004°26'0 0.0
2018-Feb-17 06:58N 51°54' E 004°26'0 0.0
2018-Feb-17 06:28N 51°54' E 004°26'0 0.0
2018-Feb-17 05:59N 51°54' E 004°26'0 0.0
2018-Feb-17 05:29N 51°54' E 004°26'0 0.0
2018-Feb-17 04:59N 51°54' E 004°26'0 0.0
2018-Feb-17 04:29N 51°54' E 004°26'0 0.0
2018-Feb-17 03:59N 51°54' E 004°26'0 0.0
2018-Feb-17 03:29N 51°54' E 004°26'0 0.0
2018-Feb-17 02:59N 51°54' E 004°26'0 0.0
2018-Feb-17 02:29N 51°54' E 004°26'0 0.0
2018-Feb-17 01:59N 51°54' E 004°26'0 0.0
2018-Feb-17 01:29N 51°54' E 004°26'0 0.0
2018-Feb-17 00:59N 51°54' E 004°26'0 0.0
2018-Feb-17 00:29N 51°54' E 004°26'0 0.0
2018-Feb-16 23:59N 51°54' E 004°26'0 0.0
2018-Feb-16 23:29N 51°54' E 004°26'0 0.0
2018-Feb-16 22:59N 51°54' E 004°26'0 0.0
2018-Feb-16 22:29N 51°54' E 004°26'0 0.0
2018-Feb-16 21:59N 51°54' E 004°26'0 0.0
2018-Feb-16 21:29N 51°54' E 004°26'0 0.0
2018-Feb-16 20:59N 51°54' E 004°26'0 0.0
2018-Feb-16 20:29N 51°54' E 004°26'0 0.0
2018-Feb-16 19:59N 51°54' E 004°26'0 0.0
2018-Feb-16 19:29N 51°54' E 004°26'0 0.0
2018-Feb-16 18:59N 51°54' E 004°26'1 2.2
2018-Feb-16 18:31N 51°53' E 004°26'0 0.1
2018-Feb-16 18:00N 51°53' E 004°26'0 0.0
2018-Feb-16 17:30N 51°53' E 004°26'0 0.0
2018-Feb-16 17:00N 51°53' E 004°26'0 0.0
2018-Feb-16 16:30N 51°53' E 004°26'1 2.1
2018-Feb-16 16:00N 51°54' E 004°25'4 8.3
2018-Feb-16 15:30N 51°54' E 004°18'5 9.5
2018-Feb-16 15:01N 51°56' E 004°12'5 9.1
2018-Feb-16 14:30N 51°59' E 004°06'3 6.7
2018-Feb-16 14:01N 51°60' E 004°01'4 7.4
2018-Feb-16 13:31N 52°02' E 003°56'2 3.4
2018-Feb-16 12:56N 52°01' E 003°53'2 4.4
2018-Feb-16 12:24N 51°60' E 003°50'2 3.6
2018-Feb-16 11:58N 51°59' E 003°48'2 4.5
2018-Feb-16 11:27N 51°58' E 003°44'2 4.9
2018-Feb-16 11:00N 51°58' E 003°41'2 4.7
2018-Feb-16 10:30N 51°57' E 003°37'51 5.8
2018-Feb-16 01:40N 51°35' E 002°23'2 8.4
2018-Feb-16 01:24N 51°33' E 002°20'3 8.6
2018-Feb-16 01:00N 51°30' E 002°16'4 8.4
2018-Feb-16 00:30N 51°28' E 002°12'4 8.0
2018-Feb-16 00:00N 51°25' E 002°07'4 8.0
2018-Feb-15 23:30N 51°23' E 002°01'4 7.2
2018-Feb-15 23:00N 51°24' E 001°55'3 7.0
2018-Feb-15 22:30N 51°25' E 001°50'3 7.0
2018-Feb-15 22:00N 51°27' E 001°45'3 6.9
2018-Feb-15 21:30N 51°28' E 001°40'3 5.8
2018-Feb-15 21:00N 51°29' E 001°35'3 5.2
2018-Feb-15 20:30N 51°27' E 001°33'2 4.8
2018-Feb-15 20:00N 51°25' E 001°30'2 4.6
2018-Feb-15 19:30N 51°27' E 001°27'3 5.6
2018-Feb-15 18:59N 51°28' E 001°23'4 6.0
2018-Feb-15 18:20N 51°29' E 001°17'3 7.8
2018-Feb-15 17:59N 51°29' E 001°13'4 8.1
2018-Feb-15 17:30N 51°29' E 001°06'4 8.9
2018-Feb-15 17:00N 51°29' E 000°59'5 9.4
2018-Feb-15 16:27N 51°29' E 000°51'610.0
2018-Feb-15 15:50N 51°30' E 000°41'310.1
2018-Feb-15 15:30N 51°30' E 000°36'510.0
2018-Feb-15 15:00N 51°29' E 000°28'4 8.8
2018-Feb-15 14:30N 51°27' E 000°22'4 7.4
2018-Feb-15 14:00N 51°28' E 000°16'3 7.0
2018-Feb-15 13:30N 51°29' E 000°11'0 0.1
2018-Feb-15 13:00N 51°29' E 000°11'0 0.0
2018-Feb-15 12:28N 51°29' E 000°11'0 0.0
2018-Feb-15 11:55N 51°29' E 000°11'0 0.0
2018-Feb-15 11:28N 51°29' E 000°11'0 0.0
2018-Feb-15 10:49N 51°29' E 000°11'0 0.0
2018-Feb-15 10:28N 51°29' E 000°11'0 0.0
2018-Feb-15 09:58N 51°29' E 000°11'0 0.5
2018-Feb-15 09:28N 51°29' E 000°11'0 0.0
2018-Feb-15 08:58N 51°29' E 000°11'0 0.0
2018-Feb-15 08:28N 51°29' E 000°11'0 0.0
2018-Feb-15 07:58N 51°29' E 000°11'0 0.0
2018-Feb-15 07:25N 51°29' E 000°11'0 0.0
2018-Feb-15 06:58N 51°29' E 000°11'0 0.0
2018-Feb-15 06:25N 51°29' E 000°11'0 0.0
2018-Feb-15 05:58N 51°29' E 000°11'0 0.0
2018-Feb-15 05:28N 51°29' E 000°11'0 0.0
2018-Feb-15 04:58N 51°29' E 000°11'0 0.0
2018-Feb-15 04:28N 51°29' E 000°11'0 0.0
2018-Feb-15 03:58N 51°29' E 000°11'0 0.0
2018-Feb-15 03:28N 51°29' E 000°11'0 0.0
2018-Feb-15 02:52N 51°29' E 000°11'0 0.0
2018-Feb-15 02:28N 51°29' E 000°11'0 0.0
2018-Feb-15 01:58N 51°29' E 000°11'0 0.0
2018-Feb-15 01:25N 51°29' E 000°11'0 0.0
2018-Feb-15 00:58N 51°29' E 000°11'0 0.0
2018-Feb-15 00:28N 51°29' E 000°11'0 0.0
2018-Feb-14 23:58N 51°29' E 000°11'0 0.0
2018-Feb-14 23:28N 51°29' E 000°11'0 0.0
2018-Feb-14 22:58N 51°29' E 000°11'0 0.0
2018-Feb-14 22:22N 51°29' E 000°11'0 0.0
2018-Feb-14 21:55N 51°29' E 000°11'0 0.0
2018-Feb-14 21:28N 51°29' E 000°11'0 0.0
2018-Feb-14 20:58N 51°29' E 000°11'0 0.0
2018-Feb-14 20:28N 51°29' E 000°11'0 0.0
2018-Feb-14 19:55N 51°29' E 000°11'0 0.0
2018-Feb-14 19:25N 51°29' E 000°11'0 0.0
2018-Feb-14 18:52N 51°29' E 000°11'0 0.0
2018-Feb-14 18:25N 51°29' E 000°11'0 0.0
2018-Feb-14 17:58N 51°29' E 000°11'0 0.0
2018-Feb-14 17:28N 51°29' E 000°11'0 0.0
2018-Feb-14 16:58N 51°29' E 000°11'0 0.0
2018-Feb-14 16:25N 51°29' E 000°11'0 0.0
2018-Feb-14 15:55N 51°29' E 000°11'0 0.0
2018-Feb-14 15:28N 51°29' E 000°11'0 0.0
2018-Feb-14 14:58N 51°29' E 000°11'0 0.0
2018-Feb-14 14:13N 51°29' E 000°11'0 0.0
2018-Feb-14 13:58N 51°29' E 000°11'0 0.0
2018-Feb-14 13:28N 51°29' E 000°11'0 0.0
2018-Feb-14 12:52N 51°29' E 000°11'0 0.0
2018-Feb-14 12:19N 51°29' E 000°11'0 0.0
2018-Feb-14 11:58N 51°29' E 000°11'0 0.0
2018-Feb-14 11:25N 51°29' E 000°11'0 0.0
2018-Feb-14 10:58N 51°29' E 000°11'0 0.0
2018-Feb-14 10:22N 51°29' E 000°11'0 0.0
2018-Feb-14 09:58N 51°29' E 000°11'0 0.0
2018-Feb-14 09:25N 51°29' E 000°11'0 0.0
2018-Feb-14 08:58N 51°29' E 000°11'0 0.0
2018-Feb-14 08:28N 51°29' E 000°11'0 0.0
2018-Feb-14 07:58N 51°29' E 000°11'0 0.0
2018-Feb-14 07:28N 51°29' E 000°11'0 0.0
2018-Feb-14 06:58N 51°29' E 000°11'0 0.0
2018-Feb-14 06:22N 51°29' E 000°11'0 0.0
2018-Feb-14 05:58N 51°29' E 000°11'0 0.0
2018-Feb-14 05:28N 51°29' E 000°11'0 0.0
2018-Feb-14 04:58N 51°29' E 000°11'0 0.0
2018-Feb-14 04:25N 51°29' E 000°11'0 0.0
2018-Feb-14 03:52N 51°29' E 000°11'0 0.0
2018-Feb-14 03:28N 51°29' E 000°11'0 0.0
2018-Feb-14 02:58N 51°29' E 000°11'0 0.0
2018-Feb-14 02:28N 51°29' E 000°11'0 0.0
2018-Feb-14 01:55N 51°29' E 000°11'0 0.0
2018-Feb-14 01:28N 51°29' E 000°11'0 0.0
2018-Feb-14 00:55N 51°29' E 000°11'0 0.0
2018-Feb-14 00:25N 51°29' E 000°11'0 0.0
2018-Feb-13 23:58N 51°29' E 000°11'0 0.0
2018-Feb-13 23:22N 51°29' E 000°11'0 0.0
2018-Feb-13 22:58N 51°29' E 000°11'0 0.0
2018-Feb-13 22:28N 51°29' E 000°11'0 0.0
2018-Feb-13 21:58N 51°29' E 000°11'0 0.0
2018-Feb-13 21:28N 51°29' E 000°11'0 0.0
2018-Feb-13 20:52N 51°29' E 000°11'0 0.0
2018-Feb-13 20:28N 51°29' E 000°11'0 0.0
2018-Feb-13 19:58N 51°29' E 000°11'0 0.0
2018-Feb-13 19:25N 51°29' E 000°11'0 0.0
2018-Feb-13 18:58N 51°29' E 000°11'0 0.0
2018-Feb-13 18:22N 51°29' E 000°11'0 0.0
2018-Feb-13 17:58N 51°29' E 000°11'0 0.0
2018-Feb-13 17:28N 51°29' E 000°11'0 0.0
2018-Feb-13 16:55N 51°29' E 000°11'0 0.0
2018-Feb-13 16:22N 51°29' E 000°11'0 0.0
2018-Feb-13 15:58N 51°29' E 000°11'0 0.0
2018-Feb-13 15:25N 51°29' E 000°11'0 0.5
2018-Feb-13 14:56N 51°29' E 000°11'0 0.0
2018-Feb-13 14:26N 51°29' E 000°11'0 0.0
2018-Feb-13 13:59N 51°29' E 000°11'0 0.0
2018-Feb-13 13:29N 51°29' E 000°11'0 0.0
2018-Feb-13 12:56N 51°29' E 000°11'0 0.0
2018-Feb-13 12:29N 51°29' E 000°11'  
Track history (hours):
 
Tides and Currents Weather Stations Pressure Air Temp Water Temp Dewpoint Dewpoint Depression Visibility Wind Speed Wind Dir Waves Ship Positions

MTS Vanquish

Last reported at 2018-Feb-23 12:01 UTC. Time now 2018-Feb-23 12:29 UTC.
Position N 55°59' W 002°09'.

Length 29 m; draft 4.7 m.

Type: Towing. MMSI: 235103213.

Date/timePositionNaut miles runAvg speedWind from/ knotsBaromVisibWave heightAir tempDewpointWater temp
2018-Feb-23 12:01N 55°59' W 002°09'3 6.3
2018-Feb-23 11:30N 55°57' W 002°04'3 6.0
2018-Feb-23 11:00N 55°55' W 002°01'3 6.0
2018-Feb-23 10:31N 55°53' W 001°57'3 5.8
2018-Feb-23 10:00N 55°51' W 001°53'3 6.0
2018-Feb-23 09:30N 55°49' W 001°49'3 5.9
2018-Feb-23 09:00N 55°47' W 001°46'4 5.9
2018-Feb-23 08:24N 55°44' W 001°41'10 5.8
2018-Feb-23 06:45N 55°36' W 001°33'1 5.9
2018-Feb-23 06:30N 55°35' W 001°32'3 5.9
2018-Feb-23 06:00N 55°32' W 001°32'3 6.1
2018-Feb-23 05:30N 55°29' W 001°31'3162.6
2018-Feb-23 05:01N 54°58' W 001°19'1017.3
2018-Feb-23 04:26N 55°08' W 001°25'1 3.1
2018-Feb-23 03:59N 55°09' W 001°26'0 0.2
2018-Feb-23 03:31N 55°09' W 001°26'2 4.0
2018-Feb-23 03:01N 55°07' W 001°25'918.2
2018-Feb-23 02:30N 54°59' W 001°19'1 1.2
2018-Feb-23 02:01N 54°58' W 001°19'2 3.1
2018-Feb-23 01:30N 54°57' W 001°18'611.4
2018-Feb-23 01:00N 54°51' W 001°15'2 4.3
2018-Feb-23 00:31N 54°49' W 001°13'4 7.9
2018-Feb-23 00:00N 54°46' W 001°08'68 8.1
2018-Feb-22 15:38N 53°56' E 000°10'66 8.9
2018-Feb-22 08:11N 53°01' E 001°10'5 9.3
2018-Feb-22 07:41N 52°59' E 001°18'2 9.7
2018-Feb-22 07:30N 52°59' E 001°21'610.3
2018-Feb-22 06:56N 52°57' E 001°29'511.1
2018-Feb-22 06:30N 52°54' E 001°36'611.3
2018-Feb-22 05:59N 52°49' E 001°43'711.0
2018-Feb-22 05:18N 52°44' E 001°52'80 9.1
2018-Feb-21 20:36N 52°05' E 003°45'1 9.0
2018-Feb-21 20:29N 52°05' E 003°47'5 9.1
2018-Feb-21 19:59N 52°04' E 003°54'4 8.4
2018-Feb-21 19:30N 52°02' E 003°60'4 8.9
2018-Feb-21 19:00N 51°59' E 004°05'4 8.0
2018-Feb-21 18:30N 51°57' E 004°11'4 7.1
2018-Feb-21 18:00N 51°55' E 004°15'3 6.3
2018-Feb-21 17:30N 51°54' E 004°20'3 6.8
2018-Feb-21 17:00N 51°54' E 004°26'0 0.2
2018-Feb-21 16:29N 51°54' E 004°26'0 0.0
2018-Feb-21 15:59N 51°54' E 004°26'0 0.0
2018-Feb-21 15:29N 51°54' E 004°26'0 0.0
2018-Feb-21 14:59N 51°54' E 004°26'0 0.0
2018-Feb-21 14:29N 51°54' E 004°26'0 0.0
2018-Feb-21 13:59N 51°54' E 004°26'0 0.0
2018-Feb-21 13:29N 51°54' E 004°26'0 0.0
2018-Feb-21 12:59N 51°54' E 004°26'0 0.0
2018-Feb-21 12:29N 51°54' E 004°26'0 0.0
2018-Feb-21 11:59N 51°54' E 004°26'0 0.0
2018-Feb-21 11:29N 51°54' E 004°26'0 0.0
2018-Feb-21 10:59N 51°54' E 004°26'0 0.0
2018-Feb-21 10:29N 51°54' E 004°26'0 0.0
2018-Feb-21 09:59N 51°54' E 004°26'0 0.0
2018-Feb-21 09:29N 51°54' E 004°26'0 0.0
2018-Feb-21 08:59N 51°54' E 004°26'0 0.0
2018-Feb-21 08:29N 51°54' E 004°26'0 0.0
2018-Feb-21 07:59N 51°54' E 004°26'0 0.0
2018-Feb-21 07:29N 51°54' E 004°26'0 0.0
2018-Feb-21 06:59N 51°54' E 004°26'0 0.0
2018-Feb-21 06:29N 51°54' E 004°26'0 0.0
2018-Feb-21 05:59N 51°54' E 004°26'0 0.0
2018-Feb-21 05:29N 51°54' E 004°26'0 0.0
2018-Feb-21 04:59N 51°54' E 004°26'0 0.0
2018-Feb-21 04:29N 51°54' E 004°26'0 0.0
2018-Feb-21 03:59N 51°54' E 004°26'0 0.0
2018-Feb-21 03:29N 51°54' E 004°26'0 0.0
2018-Feb-21 02:59N 51°54' E 004°26'0 0.0
2018-Feb-21 02:29N 51°54' E 004°26'0 0.0
2018-Feb-21 01:59N 51°54' E 004°26'0 0.0
2018-Feb-21 01:29N 51°54' E 004°26'0 0.0
2018-Feb-21 00:59N 51°54' E 004°26'0 0.0
2018-Feb-21 00:29N 51°54' E 004°26'0 0.0
2018-Feb-20 23:59N 51°54' E 004°26'0 0.0
2018-Feb-20 23:29N 51°54' E 004°26'0 0.0
2018-Feb-20 22:59N 51°54' E 004°26'0 0.0
2018-Feb-20 22:29N 51°54' E 004°26'0 0.0
2018-Feb-20 21:59N 51°54' E 004°26'0 0.0
2018-Feb-20 21:29N 51°54' E 004°26'0 0.0
2018-Feb-20 20:59N 51°54' E 004°26'0 0.0
2018-Feb-20 20:29N 51°54' E 004°26'0 0.0
2018-Feb-20 19:59N 51°54' E 004°26'0 0.0
2018-Feb-20 19:29N 51°54' E 004°26'0 0.0
2018-Feb-20 18:59N 51°54' E 004°26'0 0.0
2018-Feb-20 18:29N 51°54' E 004°26'0 0.0
2018-Feb-20 17:59N 51°54' E 004°26'0 0.0
2018-Feb-20 17:29N 51°54' E 004°26'0 0.0
2018-Feb-20 16:59N 51°54' E 004°26'0 0.0
2018-Feb-20 16:29N 51°54' E 004°26'0 0.0
2018-Feb-20 15:59N 51°54' E 004°26'0 0.0
2018-Feb-20 15:29N 51°54' E 004°26'0 0.0
2018-Feb-20 14:59N 51°54' E 004°26'0 0.0
2018-Feb-20 14:29N 51°54' E 004°26'0 0.0
2018-Feb-20 13:59N 51°54' E 004°26'0 0.0
2018-Feb-20 13:29N 51°54' E 004°26'0 0.0
2018-Feb-20 12:59N 51°54' E 004°26'0 0.0
2018-Feb-20 12:29N 51°54' E 004°26'0 0.0
2018-Feb-20 11:59N 51°54' E 004°26'0 0.0
2018-Feb-20 11:29N 51°54' E 004°26'0 0.0
2018-Feb-20 10:59N 51°54' E 004°26'0 0.0
2018-Feb-20 10:29N 51°54' E 004°26'0 0.0
2018-Feb-20 09:59N 51°54' E 004°26'0 0.0
2018-Feb-20 09:29N 51°54' E 004°26'0 0.0
2018-Feb-20 08:59N 51°54' E 004°26'0 0.0
2018-Feb-20 08:29N 51°54' E 004°26'0 0.0
2018-Feb-20 07:56N 51°54' E 004°26'0 0.0
2018-Feb-20 07:29N 51°54' E 004°26'0 0.0
2018-Feb-20 06:56N 51°54' E 004°26'0 0.0
2018-Feb-20 06:29N 51°54' E 004°26'0 0.0
2018-Feb-20 05:59N 51°54' E 004°26'0 0.0
2018-Feb-20 05:29N 51°54' E 004°26'0 0.0
2018-Feb-20 04:59N 51°54' E 004°26'0 0.0
2018-Feb-20 04:26N 51°54' E 004°26'0 0.0
2018-Feb-20 03:59N 51°54' E 004°26'0 0.0
2018-Feb-20 03:26N 51°54' E 004°26'0 0.0
2018-Feb-20 02:59N 51°54' E 004°26'0 0.0
2018-Feb-20 02:29N 51°54' E 004°26'0 0.0
2018-Feb-20 01:59N 51°54' E 004°26'0 0.0
2018-Feb-20 01:29N 51°54' E 004°26'0 0.0
2018-Feb-20 00:59N 51°54' E 004°26'0 0.0
2018-Feb-20 00:29N 51°54' E 004°26'0 0.0
2018-Feb-19 23:59N 51°54' E 004°26'0 0.0
2018-Feb-19 23:29N 51°54' E 004°26'0 0.0
2018-Feb-19 22:59N 51°54' E 004°26'0 0.0
2018-Feb-19 22:29N 51°54' E 004°26'0 0.0
2018-Feb-19 21:59N 51°54' E 004°26'0 0.0
2018-Feb-19 21:29N 51°54' E 004°26'0 0.0
2018-Feb-19 20:59N 51°54' E 004°26'0 0.0
2018-Feb-19 20:29N 51°54' E 004°26'0 0.0
2018-Feb-19 19:59N 51°54' E 004°26'0 0.0
2018-Feb-19 19:29N 51°54' E 004°26'0 0.0
2018-Feb-19 18:59N 51°54' E 004°26'0 0.0
2018-Feb-19 18:29N 51°54' E 004°26'0 0.0
2018-Feb-19 17:59N 51°54' E 004°26'0 0.0
2018-Feb-19 17:29N 51°54' E 004°26'0 0.0
2018-Feb-19 16:59N 51°54' E 004°26'0 0.0
2018-Feb-19 16:29N 51°54' E 004°26'0 0.0
2018-Feb-19 15:59N 51°54' E 004°26'0 0.0
2018-Feb-19 15:29N 51°54' E 004°26'0 0.0
2018-Feb-19 14:59N 51°54' E 004°26'0 0.0
2018-Feb-19 14:29N 51°54' E 004°26'0 0.0
2018-Feb-19 13:59N 51°54' E 004°26'0 0.0
2018-Feb-19 13:26N 51°54' E 004°26'0 0.0
2018-Feb-19 12:59N 51°54' E 004°26'0 0.0
2018-Feb-19 12:29N 51°54' E 004°26'0 0.0
2018-Feb-19 11:59N 51°54' E 004°26'0 0.0
2018-Feb-19 11:29N 51°54' E 004°26'0 0.0
2018-Feb-19 10:58N 51°54' E 004°26'0 0.0
2018-Feb-19 10:29N 51°54' E 004°26'0 0.0
2018-Feb-19 09:59N 51°54' E 004°26'0 0.0
2018-Feb-19 09:29N 51°54' E 004°26'0 0.0
2018-Feb-19 08:58N 51°54' E 004°26'0 0.0
2018-Feb-19 08:29N 51°54' E 004°26'0 0.0
2018-Feb-19 07:58N 51°54' E 004°26'0 0.0
2018-Feb-19 07:29N 51°54' E 004°26'0 0.0
2018-Feb-19 06:59N 51°54' E 004°26'0 0.0
2018-Feb-19 06:29N 51°54' E 004°26'0 0.0
2018-Feb-19 05:59N 51°54' E 004°26'0 0.0
2018-Feb-19 05:28N 51°54' E 004°26'0 0.0
2018-Feb-19 04:58N 51°54' E 004°26'0 0.0
2018-Feb-19 04:28N 51°54' E 004°26'0 0.0
2018-Feb-19 03:59N 51°54' E 004°26'0 0.0
2018-Feb-19 03:28N 51°54' E 004°26'0 0.0
2018-Feb-19 02:59N 51°54' E 004°26'0 0.0
2018-Feb-19 02:25N 51°54' E 004°26'0 0.0
2018-Feb-19 01:58N 51°54' E 004°26'0 0.0
2018-Feb-19 01:29N 51°54' E 004°26'0 0.0
2018-Feb-19 00:59N 51°54' E 004°26'0 0.0
2018-Feb-19 00:28N 51°54' E 004°26'0 0.0
2018-Feb-18 23:58N 51°54' E 004°26'0 0.0
2018-Feb-18 23:25N 51°54' E 004°26'0 0.0
2018-Feb-18 22:58N 51°54' E 004°26'0 0.0
2018-Feb-18 22:29N 51°54' E 004°26'0 0.0
2018-Feb-18 21:59N 51°54' E 004°26'0 0.0
2018-Feb-18 21:29N 51°54' E 004°26'0 0.0
2018-Feb-18 20:58N 51°54' E 004°26'0 0.0
2018-Feb-18 20:28N 51°54' E 004°26'0 0.0
2018-Feb-18 19:58N 51°54' E 004°26'0 0.0
2018-Feb-18 19:28N 51°54' E 004°26'0 0.0
2018-Feb-18 18:58N 51°54' E 004°26'0 0.0
2018-Feb-18 18:29N 51°54' E 004°26'0 0.0
2018-Feb-18 17:58N 51°54' E 004°26'0 0.0
2018-Feb-18 17:28N 51°54' E 004°26'0 0.0
2018-Feb-18 16:58N 51°54' E 004°26'0 0.0
2018-Feb-18 16:28N 51°54' E 004°26'0 0.0
2018-Feb-18 15:58N 51°54' E 004°26'0 0.0
2018-Feb-18 15:25N 51°54' E 004°26'0 0.0
2018-Feb-18 14:58N 51°54' E 004°26'0 0.0
2018-Feb-18 14:28N 51°54' E 004°26'0 0.0
2018-Feb-18 13:58N 51°54' E 004°26'0 0.0
2018-Feb-18 13:28N 51°54' E 004°26'0 0.0
2018-Feb-18 12:58N 51°54' E 004°26'0 0.0
2018-Feb-18 12:28N 51°54' E 004°26'0 0.0
2018-Feb-18 11:58N 51°54' E 004°26'0 0.0
2018-Feb-18 11:28N 51°54' E 004°26'0 0.0
2018-Feb-18 10:58N 51°54' E 004°26'0 0.0
2018-Feb-18 10:28N 51°54' E 004°26'0 0.0
2018-Feb-18 09:55N 51°54' E 004°26'0 0.0
2018-Feb-18 09:28N 51°54' E 004°26'0 0.0
2018-Feb-18 08:58N 51°54' E 004°26'0 0.0
2018-Feb-18 08:29N 51°54' E 004°26'0 0.0
2018-Feb-18 07:58N 51°54' E 004°26'0 0.0
2018-Feb-18 07:28N 51°54' E 004°26'0 0.0
2018-Feb-18 06:58N 51°54' E 004°26'0 0.0
2018-Feb-18 06:28N 51°54' E 004°26'0 0.0
2018-Feb-18 05:58N 51°54' E 004°26'0 0.0
2018-Feb-18 05:28N 51°54' E 004°26'0 0.0
2018-Feb-18 04:58N 51°54' E 004°26'0 0.0
2018-Feb-18 04:28N 51°54' E 004°26'0 0.0
2018-Feb-18 03:58N 51°54' E 004°26'0 0.0
2018-Feb-18 03:28N 51°54' E 004°26'0 0.0
2018-Feb-18 02:58N 51°54' E 004°26'0 0.0
2018-Feb-18 02:28N 51°54' E 004°26'0 0.0
2018-Feb-18 01:58N 51°54' E 004°26'0 0.0
2018-Feb-18 01:28N 51°54' E 004°26'0 0.0
2018-Feb-18 00:58N 51°54' E 004°26'0 0.0
2018-Feb-18 00:28N 51°54' E 004°26'0 0.0
2018-Feb-17 23:58N 51°54' E 004°26'0 0.0
2018-Feb-17 23:28N 51°54' E 004°26'0 0.0
2018-Feb-17 22:58N 51°54' E 004°26'0 0.0
2018-Feb-17 22:28N 51°54' E 004°26'0 0.0
2018-Feb-17 21:58N 51°54' E 004°26'0 0.0
2018-Feb-17 21:25N 51°54' E 004°26'0 0.0
2018-Feb-17 20:58N 51°54' E 004°26'0 0.0
2018-Feb-17 20:28N 51°54' E 004°26'0 0.0
2018-Feb-17 19:58N 51°54' E 004°26'0 0.0
2018-Feb-17 19:28N 51°54' E 004°26'0 0.0
2018-Feb-17 18:58N 51°54' E 004°26'0 0.0
2018-Feb-17 18:28N 51°54' E 004°26'0 0.0
2018-Feb-17 17:58N 51°54' E 004°26'0 0.0
2018-Feb-17 17:28N 51°54' E 004°26'0 0.0
2018-Feb-17 16:58N 51°54' E 004°26'0 0.0
2018-Feb-17 16:28N 51°54' E 004°26'0 0.0
2018-Feb-17 15:58N 51°54' E 004°26'0 0.0
2018-Feb-17 15:28N 51°54' E 004°26'0 0.0
2018-Feb-17 14:58N 51°54' E 004°26'0 0.0
2018-Feb-17 14:28N 51°54' E 004°26'0 0.0
2018-Feb-17 13:58N 51°54' E 004°26'0 0.0
2018-Feb-17 13:28N 51°54' E 004°26'0 0.0
2018-Feb-17 12:58N 51°54' E 004°26'0 0.0
2018-Feb-17 12:28N 51°54' E 004°26'0 0.0
2018-Feb-17 11:58N 51°54' E 004°26'0 0.0
2018-Feb-17 11:28N 51°54' E 004°26'0 0.0
2018-Feb-17 10:58N 51°54' E 004°26'0 0.0
2018-Feb-17 10:28N 51°54' E 004°26'0 0.0
2018-Feb-17 09:58N 51°54' E 004°26'0 0.0
2018-Feb-17 09:25N 51°54' E 004°26'0 0.0
2018-Feb-17 08:58N 51°54' E 004°26'0 0.0
2018-Feb-17 08:28N 51°54' E 004°26'0 0.0
2018-Feb-17 07:58N 51°54' E 004°26'0 0.0
2018-Feb-17 07:28N 51°54' E 004°26'0 0.0
2018-Feb-17 06:58N 51°54' E 004°26'0 0.0
2018-Feb-17 06:28N 51°54' E 004°26'0 0.0
2018-Feb-17 05:59N 51°54' E 004°26'0 0.0
2018-Feb-17 05:29N 51°54' E 004°26'0 0.0
2018-Feb-17 04:59N 51°54' E 004°26'0 0.0
2018-Feb-17 04:29N 51°54' E 004°26'0 0.0
2018-Feb-17 03:59N 51°54' E 004°26'0 0.0
2018-Feb-17 03:29N 51°54' E 004°26'0 0.0
2018-Feb-17 02:59N 51°54' E 004°26'0 0.0
2018-Feb-17 02:29N 51°54' E 004°26'0 0.0
2018-Feb-17 01:59N 51°54' E 004°26'0 0.0
2018-Feb-17 01:29N 51°54' E 004°26'0 0.0
2018-Feb-17 00:59N 51°54' E 004°26'0 0.0
2018-Feb-17 00:29N 51°54' E 004°26'0 0.0
2018-Feb-16 23:59N 51°54' E 004°26'0 0.0
2018-Feb-16 23:29N 51°54' E 004°26'0 0.0
2018-Feb-16 22:59N 51°54' E 004°26'0 0.0
2018-Feb-16 22:29N 51°54' E 004°26'0 0.0
2018-Feb-16 21:59N 51°54' E 004°26'0 0.0
2018-Feb-16 21:29N 51°54' E 004°26'0 0.0
2018-Feb-16 20:59N 51°54' E 004°26'0 0.0
2018-Feb-16 20:29N 51°54' E 004°26'0 0.0
2018-Feb-16 19:59N 51°54' E 004°26'0 0.0
2018-Feb-16 19:29N 51°54' E 004°26'0 0.0
2018-Feb-16 18:59N 51°54' E 004°26'1 2.2
2018-Feb-16 18:31N 51°53' E 004°26'0 0.1
2018-Feb-16 18:00N 51°53' E 004°26'0 0.0
2018-Feb-16 17:30N 51°53' E 004°26'0 0.0
2018-Feb-16 17:00N 51°53' E 004°26'0 0.0
2018-Feb-16 16:30N 51°53' E 004°26'1 2.1
2018-Feb-16 16:00N 51°54' E 004°25'4 8.3
2018-Feb-16 15:30N 51°54' E 004°18'5 9.5
2018-Feb-16 15:01N 51°56' E 004°12'5 9.1
2018-Feb-16 14:30N 51°59' E 004°06'3 6.7
2018-Feb-16 14:01N 51°60' E 004°01'4 7.4
2018-Feb-16 13:31N 52°02' E 003°56'2 3.4
2018-Feb-16 12:56N 52°01' E 003°53'2 4.4
2018-Feb-16 12:24N 51°60' E 003°50'2 3.6
2018-Feb-16 11:58N 51°59' E 003°48'2 4.5
2018-Feb-16 11:27N 51°58' E 003°44'2 4.9
2018-Feb-16 11:00N 51°58' E 003°41'2 4.7
2018-Feb-16 10:30N 51°57' E 003°37'51 5.8
2018-Feb-16 01:40N 51°35' E 002°23'2 8.4
2018-Feb-16 01:24N 51°33' E 002°20'3 8.6
2018-Feb-16 01:00N 51°30' E 002°16'4 8.4
2018-Feb-16 00:30N 51°28' E 002°12'4 8.0
2018-Feb-16 00:00N 51°25' E 002°07'4 8.0
2018-Feb-15 23:30N 51°23' E 002°01'4 7.2
2018-Feb-15 23:00N 51°24' E 001°55'3 7.0
2018-Feb-15 22:30N 51°25' E 001°50'3 7.0
2018-Feb-15 22:00N 51°27' E 001°45'3 6.9
2018-Feb-15 21:30N 51°28' E 001°40'3 5.8
2018-Feb-15 21:00N 51°29' E 001°35'3 5.2
2018-Feb-15 20:30N 51°27' E 001°33'2 4.8
2018-Feb-15 20:00N 51°25' E 001°30'2 4.6
2018-Feb-15 19:30N 51°27' E 001°27'3 5.6
2018-Feb-15 18:59N 51°28' E 001°23'4 6.0
2018-Feb-15 18:20N 51°29' E 001°17'3 7.8
2018-Feb-15 17:59N 51°29' E 001°13'4 8.1
2018-Feb-15 17:30N 51°29' E 001°06'4 8.9
2018-Feb-15 17:00N 51°29' E 000°59'5 9.4
2018-Feb-15 16:27N 51°29' E 000°51'610.0
2018-Feb-15 15:50N 51°30' E 000°41'310.1
2018-Feb-15 15:30N 51°30' E 000°36'510.0
2018-Feb-15 15:00N 51°29' E 000°28'4 8.8
2018-Feb-15 14:30N 51°27' E 000°22'4 7.4
2018-Feb-15 14:00N 51°28' E 000°16'3 7.0
2018-Feb-15 13:30N 51°29' E 000°11'0 0.1
2018-Feb-15 13:00N 51°29' E 000°11'0 0.0
2018-Feb-15 12:28N 51°29' E 000°11'0 0.0
2018-Feb-15 11:55N 51°29' E 000°11'0 0.0
2018-Feb-15 11:28N 51°29' E 000°11'0 0.0
2018-Feb-15 10:49N 51°29' E 000°11'0 0.0
2018-Feb-15 10:28N 51°29' E 000°11'0 0.0
2018-Feb-15 09:58N 51°29' E 000°11'0 0.5
2018-Feb-15 09:28N 51°29' E 000°11'0 0.0
2018-Feb-15 08:58N 51°29' E 000°11'0 0.0
2018-Feb-15 08:28N 51°29' E 000°11'0 0.0
2018-Feb-15 07:58N 51°29' E 000°11'0 0.0
2018-Feb-15 07:25N 51°29' E 000°11'0 0.0
2018-Feb-15 06:58N 51°29' E 000°11'0 0.0
2018-Feb-15 06:25N 51°29' E 000°11'0 0.0
2018-Feb-15 05:58N 51°29' E 000°11'0 0.0
2018-Feb-15 05:28N 51°29' E 000°11'0 0.0
2018-Feb-15 04:58N 51°29' E 000°11'0 0.0
2018-Feb-15 04:28N 51°29' E 000°11'0 0.0
2018-Feb-15 03:58N 51°29' E 000°11'0 0.0
2018-Feb-15 03:28N 51°29' E 000°11'0 0.0
2018-Feb-15 02:52N 51°29' E 000°11'0 0.0
2018-Feb-15 02:28N 51°29' E 000°11'0 0.0
2018-Feb-15 01:58N 51°29' E 000°11'0 0.0
2018-Feb-15 01:25N 51°29' E 000°11'0 0.0
2018-Feb-15 00:58N 51°29' E 000°11'0 0.0
2018-Feb-15 00:28N 51°29' E 000°11'0 0.0
2018-Feb-14 23:58N 51°29' E 000°11'0 0.0
2018-Feb-14 23:28N 51°29' E 000°11'0 0.0
2018-Feb-14 22:58N 51°29' E 000°11'0 0.0
2018-Feb-14 22:22N 51°29' E 000°11'0 0.0
2018-Feb-14 21:55N 51°29' E 000°11'0 0.0
2018-Feb-14 21:28N 51°29' E 000°11'0 0.0
2018-Feb-14 20:58N 51°29' E 000°11'0 0.0
2018-Feb-14 20:28N 51°29' E 000°11'0 0.0
2018-Feb-14 19:55N 51°29' E 000°11'0 0.0
2018-Feb-14 19:25N 51°29' E 000°11'0 0.0
2018-Feb-14 18:52N 51°29' E 000°11'0 0.0
2018-Feb-14 18:25N 51°29' E 000°11'0 0.0
2018-Feb-14 17:58N 51°29' E 000°11'0 0.0
2018-Feb-14 17:28N 51°29' E 000°11'0 0.0
2018-Feb-14 16:58N 51°29' E 000°11'0 0.0
2018-Feb-14 16:25N 51°29' E 000°11'0 0.0
2018-Feb-14 15:55N 51°29' E 000°11'0 0.0
2018-Feb-14 15:28N 51°29' E 000°11'0 0.0
2018-Feb-14 14:58N 51°29' E 000°11'0 0.0
2018-Feb-14 14:13N 51°29' E 000°11'0 0.0
2018-Feb-14 13:58N 51°29' E 000°11'0 0.0
2018-Feb-14 13:28N 51°29' E 000°11'0 0.0
2018-Feb-14 12:52N 51°29' E 000°11'0 0.0
2018-Feb-14 12:19N 51°29' E 000°11'0 0.0
2018-Feb-14 11:58N 51°29' E 000°11'0 0.0
2018-Feb-14 11:25N 51°29' E 000°11'0 0.0
2018-Feb-14 10:58N 51°29' E 000°11'0 0.0
2018-Feb-14 10:22N 51°29' E 000°11'0 0.0
2018-Feb-14 09:58N 51°29' E 000°11'0 0.0
2018-Feb-14 09:25N 51°29' E 000°11'0 0.0
2018-Feb-14 08:58N 51°29' E 000°11'0 0.0
2018-Feb-14 08:28N 51°29' E 000°11'0 0.0
2018-Feb-14 07:58N 51°29' E 000°11'0 0.0
2018-Feb-14 07:28N 51°29' E 000°11'0 0.0
2018-Feb-14 06:58N 51°29' E 000°11'0 0.0
2018-Feb-14 06:22N 51°29' E 000°11'0 0.0
2018-Feb-14 05:58N 51°29' E 000°11'0 0.0
2018-Feb-14 05:28N 51°29' E 000°11'0 0.0
2018-Feb-14 04:58N 51°29' E 000°11'0 0.0
2018-Feb-14 04:25N 51°29' E 000°11'0 0.0
2018-Feb-14 03:52N 51°29' E 000°11'0 0.0
2018-Feb-14 03:28N 51°29' E 000°11'0 0.0
2018-Feb-14 02:58N 51°29' E 000°11'0 0.0
2018-Feb-14 02:28N 51°29' E 000°11'0 0.0
2018-Feb-14 01:55N 51°29' E 000°11'0 0.0
2018-Feb-14 01:28N 51°29' E 000°11'0 0.0
2018-Feb-14 00:55N 51°29' E 000°11'0 0.0
2018-Feb-14 00:25N 51°29' E 000°11'0 0.0
2018-Feb-13 23:58N 51°29' E 000°11'0 0.0
2018-Feb-13 23:22N 51°29' E 000°11'0 0.0
2018-Feb-13 22:58N 51°29' E 000°11'0 0.0
2018-Feb-13 22:28N 51°29' E 000°11'0 0.0
2018-Feb-13 21:58N 51°29' E 000°11'0 0.0
2018-Feb-13 21:28N 51°29' E 000°11'0 0.0
2018-Feb-13 20:52N 51°29' E 000°11'0 0.0
2018-Feb-13 20:28N 51°29' E 000°11'0 0.0
2018-Feb-13 19:58N 51°29' E 000°11'0 0.0
2018-Feb-13 19:25N 51°29' E 000°11'0 0.0
2018-Feb-13 18:58N 51°29' E 000°11'0 0.0
2018-Feb-13 18:22N 51°29' E 000°11'0 0.0
2018-Feb-13 17:58N 51°29' E 000°11'0 0.0
2018-Feb-13 17:28N 51°29' E 000°11'0 0.0
2018-Feb-13 16:55N 51°29' E 000°11'0 0.0
2018-Feb-13 16:22N 51°29' E 000°11'0 0.0
2018-Feb-13 15:58N 51°29' E 000°11'0 0.0
2018-Feb-13 15:25N 51°29' E 000°11'0 0.5
2018-Feb-13 14:56N 51°29' E 000°11'0 0.0
2018-Feb-13 14:26N 51°29' E 000°11'0 0.0
2018-Feb-13 13:59N 51°29' E 000°11'0 0.0
2018-Feb-13 13:29N 51°29' E 000°11'0 0.0
2018-Feb-13 12:56N 51°29' E 000°11'0 0.0
2018-Feb-13 12:29N 51°29' E 000°11'  

Dump ship's entire track history